Huvudsida
METAR-TAF:

METAR-TAF

Flygplatser :

Asunción, Paraguay

latitud: 25-16S, longitud: 057-38W, höjd: 101 m

Aktuellt väderrapport

Denna rapport gjordes för 22 minuter sedan, klockan 22:00 UTC
Vind 7 kt från syd, varierande mellan ost/sydost och syd/sydväst
Temperatur 27°C
Fuktighet 37%
Tryck 1010 hPa
Sikt 10 km eller mer
Inga moln under 1 500 m eller inga cumulonimbus

METAR: SGAS 052200Z 17007KT 120V210 CAVOK 27/11 Q1010

Tid: 19:22 (22:22 UTC)

Väderprognos

Denna rapport gjordes för 6 timmar och 14 minuter sedan, klockan 16:08 UTC
Prognos gäller från 05 kl. 18 UTC till 06 kl. 18 UTC
Vind 15 kt från syd
Sikt 10 km eller mer
Få moln på en höjd av 3300 ft
Blir
från 05 kl. 22 UTC till 06 kl. 00 UTC
Vind 10 kt från syd
Sikt 10 km eller mer
Inga moln under 1 500 m eller inga cumulonimbus

TAF: SGAS 051608Z 0518/0618 18015KT 9999 FEW033 TX30/0519Z TN16/0609Z BECMG 0522/0600 18010KT CAVOK

Aktuella väderrapporter och prognoser från 4000 flygplatser (METAR- och TAF-rapporter).

De tillgängliga stationerna syns som gula och röda prickar på kartan.

För musen över prickarna för att se namnen på stationerna.

Klicka sedan för att få väderrapporter och prognoser.

För att ändra kartan: Klicka på de gröna knapparna med ett svart kors på för att zooma in; den gröna knappen med ett streck på för att zooma ut; eller på de gröna pilarna för angränsande kartor.


METAR-TAF: